Time;durP1;ratioP1;P1;durP2;ratioP2;P2;SDS_P1;SDS_P2;PMS_P1;PMS_P2;Temp;Humidity;BMP_temperature;BMP_pressure;BME280_temperature;BME280_humidity;BME280_pressure;Samples;Min_cycle;Max_cycle;Signal;HPM_P1;HPM_P2
2022/02/21 00:02:24;;;;;;;;;;;8.70;99.90;;;;;;4405896;32;46030;-79
2022/02/21 00:04:51;;;;;;;;;;;8.80;99.90;;;;;;4406118;32;43346;-78
2022/02/21 00:07:19;;;;;;;;;;;8.70;99.90;;;;;;4406611;32;45335;-79
2022/02/21 00:09:46;;;;;;;;;;;8.70;99.90;;;;;;4406035;32;45044;-79
2022/02/21 00:12:14;;;;;;;;;;;8.70;99.90;;;;;;4420054;32;43929;-79
2022/02/21 00:14:42;;;;;;;;;;;8.70;99.90;;;;;;4420082;32;43379;-78
2022/02/21 00:17:09;;;;;;;;;;;8.70;99.90;;;;;;4420459;32;43046;-78
2022/02/21 00:19:36;;;;;;;;;;;8.70;99.90;;;;;;4408298;32;44092;-79
2022/02/21 00:22:03;;;;;;;;;;;8.70;99.90;;;;;;4409141;32;43914;-79
2022/02/21 00:24:30;;;;;;;;;;;8.70;99.90;;;;;;4422533;32;44536;-79
2022/02/21 00:26:57;;;;;;;;;;;8.60;99.90;;;;;;4408982;32;42790;-79
2022/02/21 00:29:24;;;;;;;;;;;8.70;99.90;;;;;;4409290;32;44588;-79
2022/02/21 00:31:52;;;;;;;;;;;8.60;99.90;;;;;;4409216;32;44273;-79
2022/02/21 00:34:19;;;;;;;;;;;8.60;99.90;;;;;;4422904;32;44202;-79
2022/02/21 00:36:46;;;;;;;;;;;8.60;99.90;;;;;;4409861;32;21621;-80
2022/02/21 00:39:13;;;;;;;;;;;8.60;99.90;;;;;;4409286;32;45741;-79
2022/02/21 00:41:40;;;;;;;;;;;8.60;99.90;;;;;;4422454;32;43505;-79
2022/02/21 00:44:07;;;;;;;;;;;8.60;99.90;;;;;;4422933;32;44185;-79
2022/02/21 00:46:34;;;;;;;;;;;8.50;99.90;;;;;;4409172;32;43082;-79
2022/02/21 00:49:03;;;;;;;;;;;8.50;99.90;;;;;;4408609;32;43758;-80
2022/02/21 00:51:33;;;;;;;;;;;8.50;99.90;;;;;;4422505;32;44186;-79
2022/02/21 00:54:00;;;;;;;;;;;8.50;99.90;;;;;;4409136;32;43181;-79
2022/02/21 00:56:30;;;;;;;;;;;8.50;99.90;;;;;;4408985;32;44017;-79
2022/02/21 00:58:57;;;;;;;;;;;8.50;99.90;;;;;;4408539;32;44586;-79
2022/02/21 01:01:24;;;;;;;;;;;8.50;99.90;;;;;;4408359;32;43780;-79
2022/02/21 01:03:51;;;;;;;;;;;8.40;99.90;;;;;;4408995;32;43937;-79
2022/02/21 01:06:19;;;;;;;;;;;8.40;99.90;;;;;;4422589;32;44219;-79
2022/02/21 01:08:46;;;;;;;;;;;8.40;99.90;;;;;;4409550;32;20392;-79
2022/02/21 01:11:14;;;;;;;;;;;8.40;99.90;;;;;;4408779;32;44185;-79
2022/02/21 01:13:41;;;;;;;;;;;8.40;99.90;;;;;;4408306;32;43220;-78
2022/02/21 01:16:08;;;;;;;;;;;8.40;99.90;;;;;;4408738;32;43204;-79
2022/02/21 01:18:35;;;;;;;;;;;8.40;99.90;;;;;;4408541;32;44091;-79
2022/02/21 01:21:03;;;;;;;;;;;8.30;99.90;;;;;;4408279;32;44163;-79
2022/02/21 01:23:31;;;;;;;;;;;8.40;99.90;;;;;;4408601;32;43047;-79
2022/02/21 01:25:58;;;;;;;;;;;8.30;99.90;;;;;;4408629;32;43798;-79
2022/02/21 01:28:25;;;;;;;;;;;8.30;99.90;;;;;;4408599;32;43873;-79
2022/02/21 01:30:54;;;;;;;;;;;8.30;99.90;;;;;;4407643;32;45851;-79
2022/02/21 01:33:21;;;;;;;;;;;8.30;99.90;;;;;;4408229;32;43217;-80
2022/02/21 01:35:48;;;;;;;;;;;8.30;99.90;;;;;;4408233;32;44239;-79
2022/02/21 01:38:15;;;;;;;;;;;8.30;99.90;;;;;;4408245;32;43955;-79
2022/02/21 01:40:42;;;;;;;;;;;8.30;99.90;;;;;;4408291;32;43315;-79
2022/02/21 01:43:12;;;;;;;;;;;8.30;99.90;;;;;;4408377;32;42301;-79
2022/02/21 01:45:39;;;;;;;;;;;8.20;99.90;;;;;;4407890;32;45830;-79
2022/02/21 01:48:06;;;;;;;;;;;8.20;99.90;;;;;;4408112;32;44722;-79
2022/02/21 01:50:33;;;;;;;;;;;8.20;99.90;;;;;;4408223;32;44179;-79
2022/02/21 01:53:00;;;;;;;;;;;8.20;99.90;;;;;;4407739;32;43761;-79
2022/02/21 01:55:28;;;;;;;;;;;8.20;99.90;;;;;;4421319;32;44071;-79
2022/02/21 01:57:55;;;;;;;;;;;8.20;99.90;;;;;;4407967;32;44207;-80
2022/02/21 02:00:22;;;;;;;;;;;8.10;99.90;;;;;;4408160;32;44700;-79
2022/02/21 02:02:50;;;;;;;;;;;8.10;99.90;;;;;;4407542;32;43553;-78
2022/02/21 02:05:17;;;;;;;;;;;8.10;99.90;;;;;;4407863;32;42537;-79
2022/02/21 02:07:44;;;;;;;;;;;8.10;99.90;;;;;;4407524;32;44299;-80
2022/02/21 02:10:14;;;;;;;;;;;8.00;99.90;;;;;;4407554;32;44315;-78
2022/02/21 02:12:41;;;;;;;;;;;8.00;99.90;;;;;;4421533;32;44780;-79
2022/02/21 02:15:13;;;;;;;;;;;8.00;99.90;;;;;;4407351;32;42328;-79
2022/02/21 02:17:40;;;;;;;;;;;7.90;99.90;;;;;;4421196;32;45681;-79
2022/02/21 02:20:08;;;;;;;;;;;7.90;99.90;;;;;;4421062;32;44223;-80
2022/02/21 02:22:37;;;;;;;;;;;7.90;99.90;;;;;;4421448;32;43524;-78
2022/02/21 02:25:04;;;;;;;;;;;7.90;99.90;;;;;;4420845;32;44684;-78
2022/02/21 02:27:32;;;;;;;;;;;7.90;99.90;;;;;;4421055;32;44111;-79
2022/02/21 02:29:59;;;;;;;;;;;7.90;99.90;;;;;;4407268;32;43675;-79
2022/02/21 02:32:26;;;;;;;;;;;7.80;99.90;;;;;;4407818;32;43193;-79
2022/02/21 02:34:54;;;;;;;;;;;7.80;99.90;;;;;;4407693;32;44322;-79
2022/02/21 02:37:24;;;;;;;;;;;7.80;99.90;;;;;;4421184;32;43271;-79
2022/02/21 02:39:52;;;;;;;;;;;7.80;99.90;;;;;;4421434;32;20354;-79
2022/02/21 02:42:19;;;;;;;;;;;7.80;99.90;;;;;;4420025;32;43940;-78
2022/02/21 02:44:46;;;;;;;;;;;7.70;99.90;;;;;;4420618;32;44619;-79
2022/02/21 02:47:14;;;;;;;;;;;7.70;99.90;;;;;;4420881;32;44919;-79
2022/02/21 02:49:41;;;;;;;;;;;7.70;99.90;;;;;;4420937;32;44422;-78
2022/02/21 02:52:09;;;;;;;;;;;7.70;99.90;;;;;;4407219;32;45735;-79
2022/02/21 02:54:36;;;;;;;;;;;7.70;99.90;;;;;;4420472;32;42859;-79
2022/02/21 02:57:04;;;;;;;;;;;7.70;99.90;;;;;;4406840;32;44846;-79
2022/02/21 02:59:31;;;;;;;;;;;7.60;99.90;;;;;;4407254;32;42790;-79
2022/02/21 03:01:58;;;;;;;;;;;7.60;99.90;;;;;;4406851;32;44477;-79
2022/02/21 03:04:25;;;;;;;;;;;7.60;99.90;;;;;;4420816;32;43181;-78
2022/02/21 03:06:52;;;;;;;;;;;7.60;99.90;;;;;;4420753;32;44217;-79
2022/02/21 03:09:20;;;;;;;;;;;7.60;99.90;;;;;;4420858;32;44014;-78
2022/02/21 03:11:47;;;;;;;;;;;7.60;99.90;;;;;;4406669;32;43031;-78
2022/02/21 03:14:14;;;;;;;;;;;7.60;99.90;;;;;;4406875;32;45078;-78
2022/02/21 03:16:41;;;;;;;;;;;7.50;99.90;;;;;;4420628;32;44055;-79
2022/02/21 03:19:08;;;;;;;;;;;7.50;99.90;;;;;;4420427;32;45778;-79
2022/02/21 03:21:36;;;;;;;;;;;7.50;99.90;;;;;;4420518;32;43954;-79
2022/02/21 03:24:03;;;;;;;;;;;7.50;99.90;;;;;;4406569;32;42679;-79
2022/02/21 03:26:30;;;;;;;;;;;7.50;99.90;;;;;;4406729;32;43875;-79
2022/02/21 03:29:00;;;;;;;;;;;7.50;99.90;;;;;;4406748;32;44210;-78
2022/02/21 03:31:30;;;;;;;;;;;7.50;99.90;;;;;;4406695;32;42982;-79
2022/02/21 03:33:57;;;;;;;;;;;7.50;99.90;;;;;;4406944;32;38169;-78
2022/02/21 03:36:26;;;;;;;;;;;7.50;99.90;;;;;;4406917;32;44705;-78
2022/02/21 03:38:53;;;;;;;;;;;7.50;99.90;;;;;;4406969;32;43362;-78
2022/02/21 03:41:21;;;;;;;;;;;7.50;99.90;;;;;;4420068;32;43489;-79
2022/02/21 03:43:51;;;;;;;;;;;7.40;99.90;;;;;;4419875;32;44628;-79
2022/02/21 03:46:18;;;;;;;;;;;7.40;99.90;;;;;;4406850;32;42705;-78
2022/02/21 03:48:45;;;;;;;;;;;7.40;99.90;;;;;;4419923;32;42892;-78
2022/02/21 03:51:12;;;;;;;;;;;7.30;99.90;;;;;;4419952;32;43305;-78
2022/02/21 03:53:39;;;;;;;;;;;7.40;99.90;;;;;;4406263;32;43474;-78
2022/02/21 03:56:07;;;;;;;;;;;7.30;99.90;;;;;;4421587;32;20033;-78
2022/02/21 03:58:34;;;;;;;;;;;7.30;99.90;;;;;;4406180;32;43889;-79
2022/02/21 04:01:01;;;;;;;;;;;7.30;99.90;;;;;;4406096;32;44565;-78
2022/02/21 04:03:30;;;;;;;;;;;7.20;99.90;;;;;;4419856;32;43282;-78
2022/02/21 04:05:58;;;;;;;;;;;7.20;99.90;;;;;;4406076;32;43263;-78
2022/02/21 04:08:25;;;;;;;;;;;7.20;99.90;;;;;;4406319;32;44547;-78
2022/02/21 04:10:52;;;;;;;;;;;7.20;99.90;;;;;;4406627;32;43552;-79
2022/02/21 04:13:19;;;;;;;;;;;7.20;99.90;;;;;;4406357;32;42793;-78
2022/02/21 04:15:46;;;;;;;;;;;7.20;99.90;;;;;;4420126;32;43481;-78
2022/02/21 04:18:16;;;;;;;;;;;7.20;99.90;;;;;;4419786;32;42738;-78
2022/02/21 04:20:45;;;;;;;;;;;7.10;99.90;;;;;;4419867;32;45168;-78
2022/02/21 04:23:13;;;;;;;;;;;7.20;99.90;;;;;;4420177;32;44659;-78
2022/02/21 04:25:41;;;;;;;;;;;7.10;99.90;;;;;;4406288;32;45721;-78
2022/02/21 04:28:13;;;;;;;;;;;7.10;99.90;;;;;;4406460;32;43601;-78
2022/02/21 04:30:41;;;;;;;;;;;7.10;99.90;;;;;;4420602;32;36966;-78
2022/02/21 04:33:08;;;;;;;;;;;7.10;99.90;;;;;;4419796;32;43492;-78
2022/02/21 04:35:36;;;;;;;;;;;7.10;99.90;;;;;;4420191;32;43916;-78
2022/02/21 04:38:04;;;;;;;;;;;7.10;99.90;;;;;;4407659;32;20371;-78
2022/02/21 04:40:31;;;;;;;;;;;7.10;99.90;;;;;;4406327;32;44418;-78
2022/02/21 04:42:59;;;;;;;;;;;7.10;99.90;;;;;;4419430;32;43186;-78
2022/02/21 04:45:29;;;;;;;;;;;7.10;99.90;;;;;;4419652;32;43482;-78
2022/02/21 04:47:56;;;;;;;;;;;7.10;99.90;;;;;;4420030;32;44695;-78
2022/02/21 04:50:23;;;;;;;;;;;7.10;99.90;;;;;;4420076;32;43210;-78
2022/02/21 04:52:50;;;;;;;;;;;7.10;99.90;;;;;;4406186;32;43245;-78
2022/02/21 04:55:17;;;;;;;;;;;7.10;99.90;;;;;;4406068;32;45907;-78
2022/02/21 04:57:45;;;;;;;;;;;7.10;99.90;;;;;;4406540;32;43913;-78
2022/02/21 05:00:13;;;;;;;;;;;7.10;99.90;;;;;;4405777;32;42967;-78
2022/02/21 05:02:41;;;;;;;;;;;7.10;99.90;;;;;;4402879;32;45813;-79
2022/02/21 05:05:10;;;;;;;;;;;7.10;99.90;;;;;;4405080;32;44202;-78
2022/02/21 05:07:38;;;;;;;;;;;7.00;99.90;;;;;;4406893;32;42756;-79
2022/02/21 05:10:05;;;;;;;;;;;7.00;99.90;;;;;;4407367;32;43207;-78
2022/02/21 05:12:36;;;;;;;;;;;7.00;99.90;;;;;;4405951;32;43375;-80
2022/02/21 05:15:04;;;;;;;;;;;7.00;99.90;;;;;;4407328;32;20399;-80
2022/02/21 05:17:32;;;;;;;;;;;7.00;99.90;;;;;;4405872;32;44216;-81
2022/02/21 05:19:59;;;;;;;;;;;7.00;99.90;;;;;;4405737;32;43881;-80
2022/02/21 05:22:28;;;;;;;;;;;7.00;99.90;;;;;;4407173;32;44641;-80
2022/02/21 05:24:56;;;;;;;;;;;7.00;99.90;;;;;;4406010;32;44526;-80
2022/02/21 05:27:25;;;;;;;;;;;7.00;99.90;;;;;;4406797;32;43427;-80
2022/02/21 05:29:52;;;;;;;;;;;6.90;99.90;;;;;;4406862;32;43892;-80
2022/02/21 05:32:19;;;;;;;;;;;6.90;99.90;;;;;;4405373;32;45190;-80
2022/02/21 05:34:46;;;;;;;;;;;6.90;99.90;;;;;;4407018;32;43884;-80
2022/02/21 05:37:13;;;;;;;;;;;6.90;99.90;;;;;;4406447;32;43941;-80
2022/02/21 05:39:40;;;;;;;;;;;6.90;99.90;;;;;;4407051;32;44441;-80
2022/02/21 05:42:08;;;;;;;;;;;6.90;99.90;;;;;;4405522;32;43265;-80
2022/02/21 05:44:35;;;;;;;;;;;6.90;99.90;;;;;;4406650;32;44590;-80
2022/02/21 05:47:02;;;;;;;;;;;6.90;99.90;;;;;;4405302;32;45095;-80
2022/02/21 05:49:32;;;;;;;;;;;6.90;99.90;;;;;;4406315;32;42906;-80
2022/02/21 05:51:59;;;;;;;;;;;6.90;99.90;;;;;;4405571;32;44121;-80
2022/02/21 05:54:26;;;;;;;;;;;6.80;99.90;;;;;;4406259;32;43887;-80
2022/02/21 05:56:55;;;;;;;;;;;6.90;99.90;;;;;;4405512;32;43168;-80
2022/02/21 05:59:22;;;;;;;;;;;6.90;99.90;;;;;;4405017;32;44284;-80
2022/02/21 06:01:53;;;;;;;;;;;6.80;99.90;;;;;;4410430;32;45184;-80
2022/02/21 06:04:20;;;;;;;;;;;6.80;99.90;;;;;;4407547;32;44094;-80
2022/02/21 06:06:47;;;;;;;;;;;6.80;99.90;;;;;;4407615;32;43828;-80
2022/02/21 06:09:14;;;;;;;;;;;6.80;99.90;;;;;;4408177;32;43426;-80
2022/02/21 06:11:41;;;;;;;;;;;6.80;99.90;;;;;;4407597;32;44117;-80
2022/02/21 06:14:08;;;;;;;;;;;6.80;99.90;;;;;;4421386;32;43267;-80
2022/02/21 06:16:35;;;;;;;;;;;6.70;99.90;;;;;;4421341;32;44190;-80
2022/02/21 06:19:04;;;;;;;;;;;6.70;99.90;;;;;;4421343;32;45228;-80
2022/02/21 06:21:31;;;;;;;;;;;6.70;99.90;;;;;;4407432;32;44324;-80
2022/02/21 06:23:58;;;;;;;;;;;6.70;99.90;;;;;;4407470;32;44278;-80
2022/02/21 06:26:26;;;;;;;;;;;6.70;99.90;;;;;;4407307;32;43340;-80
2022/02/21 06:28:53;;;;;;;;;;;6.60;99.90;;;;;;4407278;32;44317;-80
2022/02/21 06:31:21;;;;;;;;;;;6.70;99.90;;;;;;4407648;32;43363;-80
2022/02/21 06:33:48;;;;;;;;;;;6.70;99.90;;;;;;4407772;32;43145;-81
2022/02/21 06:36:16;;;;;;;;;;;6.60;99.90;;;;;;4407231;32;44233;-80
2022/02/21 06:38:43;;;;;;;;;;;6.60;99.90;;;;;;4407322;32;43745;-80
2022/02/21 06:41:14;;;;;;;;;;;6.60;99.90;;;;;;4407609;32;45009;-80
2022/02/21 06:43:41;;;;;;;;;;;6.60;99.90;;;;;;4407722;32;43836;-80
2022/02/21 06:46:11;;;;;;;;;;;6.60;99.90;;;;;;4420579;32;43226;-80
2022/02/21 06:48:38;;;;;;;;;;;6.60;99.90;;;;;;4407478;32;44292;-80
2022/02/21 06:51:06;;;;;;;;;;;6.60;99.90;;;;;;4406945;32;43620;-80
2022/02/21 06:53:33;;;;;;;;;;;6.60;99.90;;;;;;4406966;32;45775;-80
2022/02/21 06:56:00;;;;;;;;;;;6.60;99.90;;;;;;4406920;32;43489;-80
2022/02/21 06:58:27;;;;;;;;;;;6.60;99.90;;;;;;4421234;32;44219;-80
2022/02/21 07:00:54;;;;;;;;;;;6.50;99.90;;;;;;4407202;32;43486;-80
2022/02/21 07:03:22;;;;;;;;;;;6.50;99.90;;;;;;4420299;32;43814;-80
2022/02/21 07:05:50;;;;;;;;;;;6.60;99.90;;;;;;4407204;32;45528;-81
2022/02/21 07:08:17;;;;;;;;;;;6.50;99.90;;;;;;4406934;32;44645;-80
2022/02/21 07:10:44;;;;;;;;;;;6.50;99.90;;;;;;4420324;32;43050;-80
2022/02/21 07:13:12;;;;;;;;;;;6.50;99.90;;;;;;4406615;32;40945;-80
2022/02/21 07:15:40;;;;;;;;;;;6.50;99.90;;;;;;4406696;32;44325;-80
2022/02/21 07:18:10;;;;;;;;;;;6.50;99.90;;;;;;4406709;32;45122;-80
2022/02/21 07:20:38;;;;;;;;;;;6.50;99.90;;;;;;4407163;32;44552;-81
2022/02/21 07:23:07;;;;;;;;;;;6.40;99.90;;;;;;4420469;32;44058;-80
2022/02/21 07:25:36;;;;;;;;;;;6.40;99.90;;;;;;4406466;32;43877;-80
2022/02/21 07:28:04;;;;;;;;;;;6.50;99.90;;;;;;4405901;32;46045;-80
2022/02/21 07:30:33;;;;;;;;;;;6.40;99.90;;;;;;4406985;32;43900;-80
2022/02/21 07:33:01;;;;;;;;;;;6.40;99.90;;;;;;4420444;32;44792;-80
2022/02/21 07:35:28;;;;;;;;;;;6.40;99.90;;;;;;4406554;32;44533;-80
2022/02/21 07:37:55;;;;;;;;;;;6.40;99.90;;;;;;4406399;32;42683;-80
2022/02/21 07:40:24;;;;;;;;;;;6.40;99.90;;;;;;4406807;32;45499;-80
2022/02/21 07:42:53;;;;;;;;;;;6.40;99.90;;;;;;4420385;32;43281;-80
2022/02/21 07:45:20;;;;;;;;;;;6.40;99.90;;;;;;4420484;32;43371;-80
2022/02/21 07:47:52;;;;;;;;;;;6.40;99.90;;;;;;4406440;32;42790;-80
2022/02/21 07:50:19;;;;;;;;;;;6.40;99.90;;;;;;4406719;32;46124;-81
2022/02/21 07:52:46;;;;;;;;;;;6.30;99.90;;;;;;4406293;32;43950;-80
2022/02/21 07:55:13;;;;;;;;;;;6.30;99.90;;;;;;4406582;32;43209;-80
2022/02/21 07:57:43;;;;;;;;;;;6.40;99.90;;;;;;4419915;32;43516;-80
2022/02/21 08:00:12;;;;;;;;;;;6.30;99.90;;;;;;4419738;32;44615;-80
2022/02/21 08:02:40;;;;;;;;;;;6.40;99.90;;;;;;4406115;32;44657;-80
2022/02/21 08:05:07;;;;;;;;;;;6.30;99.90;;;;;;4406445;32;43908;-80
2022/02/21 08:07:35;;;;;;;;;;;6.30;99.90;;;;;;4419815;32;44205;-80
2022/02/21 08:10:02;;;;;;;;;;;6.30;99.90;;;;;;4419781;32;43481;-80
2022/02/21 08:12:32;;;;;;;;;;;6.30;99.90;;;;;;4419875;32;44637;-80
2022/02/21 08:14:59;;;;;;;;;;;6.30;99.90;;;;;;4420001;32;43190;-80
2022/02/21 08:17:27;;;;;;;;;;;6.30;99.90;;;;;;4406074;32;44202;-80
2022/02/21 08:19:54;;;;;;;;;;;6.30;99.90;;;;;;4406747;32;37759;-80
2022/02/21 08:22:21;;;;;;;;;;;6.30;99.90;;;;;;4406029;32;43101;-80
2022/02/21 08:24:48;;;;;;;;;;;6.30;99.90;;;;;;4406012;32;42927;-81
2022/02/21 08:27:16;;;;;;;;;;;6.30;99.90;;;;;;4406041;32;44559;-81
2022/02/21 08:29:46;;;;;;;;;;;6.30;99.90;;;;;;4419524;32;45758;-80
2022/02/21 08:32:13;;;;;;;;;;;6.30;99.90;;;;;;4406037;32;43221;-80
2022/02/21 08:34:41;;;;;;;;;;;6.30;99.90;;;;;;4406417;32;42972;-81
2022/02/21 08:37:08;;;;;;;;;;;6.30;99.90;;;;;;4406484;32;44060;-80
2022/02/21 08:39:35;;;;;;;;;;;6.30;99.90;;;;;;4406889;32;44415;-80
2022/02/21 08:42:02;;;;;;;;;;;6.30;99.90;;;;;;4422653;32;44399;-80
2022/02/21 08:44:34;;;;;;;;;;;6.30;99.90;;;;;;4422304;32;43438;-81
2022/02/21 08:47:01;;;;;;;;;;;6.30;99.90;;;;;;4422342;32;43536;-81
2022/02/21 08:49:28;;;;;;;;;;;6.30;99.90;;;;;;4422726;32;44203;-80
2022/02/21 08:51:55;;;;;;;;;;;6.30;99.90;;;;;;4409034;32;45287;-81
2022/02/21 08:54:24;;;;;;;;;;;6.30;99.90;;;;;;4422490;32;43516;-81
2022/02/21 08:56:51;;;;;;;;;;;6.30;99.90;;;;;;4408833;32;42966;-81
2022/02/21 08:59:18;;;;;;;;;;;6.40;99.90;;;;;;4422522;32;43477;-81
2022/02/21 09:01:48;;;;;;;;;;;6.30;99.90;;;;;;4422474;32;43856;-81
2022/02/21 09:04:35;;;;;;;;;;;6.30;99.90;;;;;;4422794;32;46323;-82
2022/02/21 09:07:03;;;;;;;;;;;6.30;99.90;;;;;;4422074;32;44171;-80
2022/02/21 09:09:30;;;;;;;;;;;6.30;99.90;;;;;;4422295;32;43497;-81
2022/02/21 09:11:57;;;;;;;;;;;6.40;99.90;;;;;;4408785;32;43621;-81
2022/02/21 09:14:24;;;;;;;;;;;6.40;99.90;;;;;;4408719;32;42386;-80
2022/02/21 09:16:51;;;;;;;;;;;6.40;99.90;;;;;;4408675;32;44173;-81
2022/02/21 09:19:19;;;;;;;;;;;6.40;99.90;;;;;;4408881;32;43546;-81
2022/02/21 09:21:46;;;;;;;;;;;6.40;99.90;;;;;;4422423;32;44296;-80
2022/02/21 09:24:14;;;;;;;;;;;6.40;99.90;;;;;;4408221;32;42475;-81
2022/02/21 09:26:41;;;;;;;;;;;6.40;99.90;;;;;;4422420;32;43473;-81
2022/02/21 09:29:08;;;;;;;;;;;6.40;99.90;;;;;;4408763;32;43861;-81
2022/02/21 09:31:35;;;;;;;;;;;6.40;99.90;;;;;;4408125;32;43034;-80
2022/02/21 09:34:02;;;;;;;;;;;6.40;99.90;;;;;;4421816;32;42246;-80
2022/02/21 09:36:30;;;;;;;;;;;6.40;99.90;;;;;;4421941;32;43300;-81
2022/02/21 09:38:59;;;;;;;;;;;6.40;99.90;;;;;;4408097;32;42535;-81
2022/02/21 09:41:26;;;;;;;;;;;6.40;99.90;;;;;;4421631;32;43321;-81
2022/02/21 09:43:53;;;;;;;;;;;6.40;99.90;;;;;;4421975;32;43848;-81
2022/02/21 09:46:23;;;;;;;;;;;6.40;99.90;;;;;;4408040;32;43490;-81
2022/02/21 09:48:50;;;;;;;;;;;6.50;99.90;;;;;;4408470;32;44485;-81
2022/02/21 09:51:17;;;;;;;;;;;6.50;99.90;;;;;;4421455;32;42991;-81
2022/02/21 09:53:45;;;;;;;;;;;6.50;99.90;;;;;;4407736;32;44394;-80
2022/02/21 09:56:12;;;;;;;;;;;6.50;99.90;;;;;;4421837;32;44105;-81
2022/02/21 09:58:42;;;;;;;;;;;6.50;99.90;;;;;;4421386;32;43873;-80
2022/02/21 10:01:09;;;;;;;;;;;6.50;99.90;;;;;;4421316;32;42939;-81
2022/02/21 10:03:36;;;;;;;;;;;6.50;99.90;;;;;;4407780;32;44618;-80
2022/02/21 10:06:14;;;;;;;;;;;6.50;99.90;;;;;;4407867;32;44204;-80
2022/02/21 10:08:49;;;;;;;;;;;6.50;99.90;;;;;;4408200;32;43888;-80
2022/02/21 10:11:33;;;;;;;;;;;6.50;99.90;;;;;;4421929;32;45785;-80
2022/02/21 10:14:01;;;;;;;;;;;6.50;99.90;;;;;;4407562;32;43122;-81
2022/02/21 10:16:41;;;;;;;;;;;6.50;99.90;;;;;;4421376;32;43307;-80
2022/02/21 10:19:13;;;;;;;;;;;6.50;99.90;;;;;;4421806;32;44063;-81
2022/02/21 10:21:49;;;;;;;;;;;6.50;99.90;;;;;;4421433;32;44296;-80
2022/02/21 10:24:17;;;;;;;;;;;6.50;99.90;;;;;;4407947;32;44658;-80
2022/02/21 10:26:44;;;;;;;;;;;6.50;99.90;;;;;;4407338;32;42466;-80
2022/02/21 10:29:11;;;;;;;;;;;6.50;99.90;;;;;;4407274;32;42518;-80
2022/02/21 10:31:39;;;;;;;;;;;6.50;99.90;;;;;;4420872;32;43446;-80
2022/02/21 10:34:32;;;;;;;;;;;6.50;99.90;;;;;;4409832;32;45283;-80
2022/02/21 10:36:59;;;;;;;;;;;6.50;99.90;;;;;;4407725;32;43969;-80
2022/02/21 10:39:26;;;;;;;;;;;6.50;99.90;;;;;;4407168;32;43761;-80
2022/02/21 10:41:54;;;;;;;;;;;6.50;99.90;;;;;;4420679;32;42616;-80
2022/02/21 10:44:29;;;;;;;;;;;6.50;99.90;;;;;;4407683;32;42705;-79
2022/02/21 10:47:02;;;;;;;;;;;6.50;99.90;;;;;;4407138;32;42926;-80
2022/02/21 10:49:48;;;;;;;;;;;6.50;99.90;;;;;;4420645;32;42729;-79
2022/02/21 10:52:17;;;;;;;;;;;6.50;99.90;;;;;;4420520;32;42964;-79
2022/02/21 10:54:45;;;;;;;;;;;6.50;99.90;;;;;;4407217;32;44139;-79
2022/02/21 10:57:13;;;;;;;;;;;6.50;99.90;;;;;;4420493;32;43831;-79
2022/02/21 10:59:41;;;;;;;;;;;6.50;99.90;;;;;;4420574;32;43877;-79
2022/02/21 11:02:10;;;;;;;;;;;6.50;99.90;;;;;;4406366;32;43541;-79
2022/02/21 11:04:38;;;;;;;;;;;6.50;99.90;;;;;;4407382;32;43866;-78
2022/02/21 11:07:07;;;;;;;;;;;6.50;99.90;;;;;;4420345;32;44056;-79
2022/02/21 11:09:36;;;;;;;;;;;6.50;99.90;;;;;;4406741;32;44930;-79
2022/02/21 11:12:04;;;;;;;;;;;6.50;99.90;;;;;;4407223;32;44273;-78
2022/02/21 11:14:32;;;;;;;;;;;6.50;99.90;;;;;;4421238;32;20007;-79
2022/02/21 11:17:00;;;;;;;;;;;6.50;99.90;;;;;;4420468;32;43235;-78
2022/02/21 11:19:27;;;;;;;;;;;6.50;99.90;;;;;;4406890;32;45493;-78
2022/02/21 11:21:55;;;;;;;;;;;6.50;99.90;;;;;;4420661;32;43549;-78
2022/02/21 11:24:23;;;;;;;;;;;6.50;99.90;;;;;;4420007;32;45621;-78
2022/02/21 11:27:08;;;;;;;;;;;6.50;99.90;;;;;;4406630;32;43014;-79
2022/02/21 11:29:43;;;;;;;;;;;6.50;99.90;;;;;;4420406;32;43847;-79
2022/02/21 11:32:17;;;;;;;;;;;6.50;99.90;;;;;;4420488;32;43406;-78
2022/02/21 11:34:46;;;;;;;;;;;6.50;99.90;;;;;;4420497;32;44203;-79
2022/02/21 11:37:24;;;;;;;;;;;6.50;99.90;;;;;;4406456;32;43026;-78
2022/02/21 11:39:55;;;;;;;;;;;6.50;99.90;;;;;;4406777;32;45096;-79
2022/02/21 11:42:42;;;;;;;;;;;6.50;99.90;;;;;;4420296;32;45362;-79
2022/02/21 11:45:29;;;;;;;;;;;6.50;99.90;;;;;;4420769;32;19999;-79
2022/02/21 11:47:57;;;;;;;;;;;6.50;99.90;;;;;;4420537;32;43258;-79
2022/02/21 11:50:34;;;;;;;;;;;6.50;99.90;;;;;;4406254;32;46053;-79
2022/02/21 11:53:21;;;;;;;;;;;6.50;99.90;;;;;;4406846;32;43458;-79
2022/02/21 11:55:48;;;;;;;;;;;6.50;99.90;;;;;;4420336;32;43507;-79
2022/02/21 11:58:15;;;;;;;;;;;6.50;99.90;;;;;;4419734;32;44485;-79
2022/02/21 12:00:46;;;;;;;;;;;6.50;99.90;;;;;;4420153;32;43864;-79
2022/02/21 12:03:15;;;;;;;;;;;6.50;99.90;;;;;;4419772;32;45177;-79
2022/02/21 12:05:42;;;;;;;;;;;6.50;99.90;;;;;;4419708;32;43891;-79
2022/02/21 12:08:29;;;;;;;;;;;6.50;99.90;;;;;;4409013;32;46606;-79
2022/02/21 12:11:02;;;;;;;;;;;6.50;99.90;;;;;;4420007;32;43481;-79
2022/02/21 12:13:29;;;;;;;;;;;6.50;99.90;;;;;;4407354;32;43859;-79
2022/02/21 12:16:07;;;;;;;;;;;6.50;99.90;;;;;;4410059;32;20056;-79
2022/02/21 12:18:38;;;;;;;;;;;6.50;99.90;;;;;;4423240;32;43479;-79
2022/02/21 12:21:15;;;;;;;;;;;6.50;99.90;;;;;;4423472;32;43486;-79
2022/02/21 12:23:58;;;;;;;;;;;6.50;99.90;;;;;;4408980;32;45189;-79
2022/02/21 12:26:30;;;;;;;;;;;6.60;99.90;;;;;;4409631;32;44048;-79
2022/02/21 12:29:17;;;;;;;;;;;6.60;99.90;;;;;;4409480;32;44060;-79
2022/02/21 12:31:46;;;;;;;;;;;6.60;99.90;;;;;;4409514;32;43452;-79
2022/02/21 12:34:16;;;;;;;;;;;6.60;99.90;;;;;;4409559;32;43014;-79
2022/02/21 12:36:44;;;;;;;;;;;6.60;99.90;;;;;;4422980;32;46037;-79
2022/02/21 12:39:12;;;;;;;;;;;6.60;99.90;;;;;;4422569;32;42334;-79
2022/02/21 12:41:41;;;;;;;;;;;6.60;99.90;;;;;;4422917;32;43036;-79
2022/02/21 12:44:09;;;;;;;;;;;6.60;99.90;;;;;;4408787;32;43591;-79
2022/02/21 12:46:41;;;;;;;;;;;6.60;99.90;;;;;;4409613;32;20044;-79
2022/02/21 12:49:15;;;;;;;;;;;6.60;99.90;;;;;;4422725;32;44105;-79
2022/02/21 12:51:46;;;;;;;;;;;6.60;99.90;;;;;;4408730;32;43479;-79
2022/02/21 12:54:14;;;;;;;;;;;6.60;99.90;;;;;;4422643;32;43078;-79
2022/02/21 12:56:45;;;;;;;;;;;6.60;99.90;;;;;;4409546;32;43478;-79
2022/02/21 12:59:13;;;;;;;;;;;6.60;99.90;;;;;;4422952;32;45264;-79
2022/02/21 13:01:40;;;;;;;;;;;6.60;99.90;;;;;;4422258;32;44009;-80
2022/02/21 13:04:11;;;;;;;;;;;6.60;99.90;;;;;;4422565;32;44412;-79
2022/02/21 13:06:38;;;;;;;;;;;6.70;99.90;;;;;;4422736;32;43883;-79
2022/02/21 13:09:05;;;;;;;;;;;6.70;99.90;;;;;;4408415;32;42375;-79
2022/02/21 13:11:37;;;;;;;;;;;6.70;99.90;;;;;;4422721;32;44167;-79
2022/02/21 13:14:21;;;;;;;;;;;6.70;99.90;;;;;;4410814;32;44183;-79
2022/02/21 13:16:52;;;;;;;;;;;6.70;99.90;;;;;;4423193;32;19999;-80
2022/02/21 13:19:26;;;;;;;;;;;6.70;99.90;;;;;;4421883;32;43378;-79
2022/02/21 13:21:54;;;;;;;;;;;6.70;99.90;;;;;;4408931;32;45974;-79
2022/02/21 13:24:23;;;;;;;;;;;6.70;99.90;;;;;;4408402;32;42934;-80
2022/02/21 13:26:51;;;;;;;;;;;6.70;99.90;;;;;;4408041;32;44360;-79
2022/02/21 13:29:24;;;;;;;;;;;6.70;99.90;;;;;;4408189;32;44934;-79
2022/02/21 13:31:52;;;;;;;;;;;6.80;99.90;;;;;;4408508;32;44701;-79
2022/02/21 13:34:38;;;;;;;;;;;6.70;99.90;;;;;;4408517;32;44348;-79
2022/02/21 13:37:09;;;;;;;;;;;6.70;99.90;;;;;;4421996;32;42921;-79
2022/02/21 13:39:43;;;;;;;;;;;6.70;99.90;;;;;;4408213;32;43057;-79
2022/02/21 13:42:14;;;;;;;;;;;6.70;99.90;;;;;;4407986;32;43768;-79
2022/02/21 13:44:41;;;;;;;;;;;6.70;99.90;;;;;;4421612;32;43050;-79
2022/02/21 13:47:09;;;;;;;;;;;6.80;99.90;;;;;;4409094;32;20035;-79
2022/02/21 13:49:36;;;;;;;;;;;6.80;99.90;;;;;;4408310;32;43873;-80
2022/02/21 13:52:07;;;;;;;;;;;6.80;99.90;;;;;;4422009;32;43284;-79
2022/02/21 13:54:34;;;;;;;;;;;6.80;99.90;;;;;;4421813;32;43026;-79
2022/02/21 13:57:14;;;;;;;;;;;6.70;99.90;;;;;;4421793;32;44194;-79
2022/02/21 13:59:42;;;;;;;;;;;6.80;99.90;;;;;;4407809;32;44630;-79
2022/02/21 14:02:26;;;;;;;;;;;6.80;99.90;;;;;;4407744;32;43501;-79
2022/02/21 14:05:10;;;;;;;;;;;6.70;99.90;;;;;;4421599;32;43574;-79
2022/02/21 14:07:48;;;;;;;;;;;6.80;99.90;;;;;;4421718;32;43346;-80
2022/02/21 14:10:16;;;;;;;;;;;6.80;99.90;;;;;;4421846;32;44869;-79
2022/02/21 14:12:56;;;;;;;;;;;6.80;99.90;;;;;;4408163;32;43905;-79
2022/02/21 14:15:24;;;;;;;;;;;6.80;99.90;;;;;;4407935;32;44158;-80
2022/02/21 14:17:51;;;;;;;;;;;6.80;99.90;;;;;;4421637;32;43575;-80
2022/02/21 14:20:19;;;;;;;;;;;6.80;99.90;;;;;;4421115;32;43989;-79
2022/02/21 14:23:05;;;;;;;;;;;6.80;99.90;;;;;;4409587;32;43343;-79
2022/02/21 14:25:32;;;;;;;;;;;6.80;99.90;;;;;;4407937;32;43447;-80
2022/02/21 14:27:59;;;;;;;;;;;6.80;99.90;;;;;;4407421;32;43069;-80
2022/02/21 14:30:27;;;;;;;;;;;6.80;99.90;;;;;;4407148;32;43894;-79
2022/02/21 14:32:54;;;;;;;;;;;6.80;99.90;;;;;;4407754;32;44110;-79
2022/02/21 14:35:37;;;;;;;;;;;6.80;99.90;;;;;;4408867;32;43240;-79
2022/02/21 14:38:05;;;;;;;;;;;6.80;99.90;;;;;;4407672;32;43420;-79
2022/02/21 14:40:33;;;;;;;;;;;6.90;99.90;;;;;;4421052;32;43518;-80
2022/02/21 14:43:03;;;;;;;;;;;6.80;99.90;;;;;;4421121;32;42776;-79